createdAt,value
2023-05-14T09:46:10.627Z,100886.19
2023-05-14T09:56:13.651Z,100875.09
2023-05-14T10:06:23.254Z,100863.13
2023-05-14T10:16:30.221Z,100858.03
2023-05-14T10:26:37.695Z,100847.66
2023-05-14T10:36:40.719Z,100837.75
2023-05-14T10:46:45.445Z,100827.44
2023-05-14T10:56:48.976Z,100815.22
2023-05-14T11:06:54.636Z,100810.94
2023-05-14T11:16:58.808Z,100800.66
2023-05-14T11:27:03.169Z,100806.28
2023-05-14T11:42:28.434Z,100792.00
2023-05-14T13:52:11.515Z,100635.44
2023-05-14T14:02:14.506Z,100632.94
2023-05-14T14:12:18.849Z,100617.75
2023-05-14T14:22:23.174Z,100598.50
2023-05-14T14:32:30.323Z,100597.53
2023-05-14T14:42:33.278Z,100592.69
2023-05-14T14:52:37.746Z,100591.88
2023-05-14T15:02:43.140Z,100579.81
2023-05-14T15:12:47.698Z,100574.69
2023-05-14T15:32:56.876Z,100566.63
2023-05-14T15:43:00.029Z,100554.06
2023-05-14T15:53:04.609Z,100552.72
2023-05-14T16:03:07.665Z,100530.94
2023-05-14T16:13:11.969Z,100551.31
2023-05-14T16:23:15.002Z,100543.50
2023-05-14T16:33:19.398Z,100542.16
2023-05-14T16:43:22.402Z,100550.31
2023-05-14T16:53:26.969Z,100545.47
2023-05-14T17:03:30.734Z,100548.59
2023-05-14T17:13:35.753Z,100540.84
2023-05-14T17:23:38.788Z,100552.38
2023-05-14T17:33:43.561Z,100545.44
2023-05-14T17:43:46.533Z,100558.59
2023-05-14T17:53:50.968Z,100565.81
2023-05-14T18:03:54.424Z,100580.53
2023-05-14T18:13:58.605Z,100578.13
2023-05-14T18:24:01.597Z,100583.16
2023-05-14T18:34:06.063Z,100587.25
2023-05-14T18:44:09.775Z,100580.69
2023-05-14T18:54:14.560Z,100592.63
2023-05-14T19:04:17.849Z,100594.97
2023-05-14T19:14:22.995Z,100596.88
2023-05-14T19:24:26.237Z,100618.25
2023-05-14T19:34:30.464Z,100627.19
2023-05-14T19:44:33.729Z,100631.06
2023-05-14T19:54:38.331Z,100650.78
2023-05-14T20:04:42.960Z,100647.59
2023-05-14T20:14:47.546Z,100644.47
2023-05-14T20:24:52.696Z,100642.19
2023-05-14T20:35:02.176Z,100635.06
2023-05-14T20:45:06.963Z,100638.72
2023-05-14T20:55:11.839Z,100632.84
2023-05-14T21:05:15.462Z,100635.28
2023-05-14T21:15:20.914Z,100625.56
2023-05-14T21:25:24.014Z,100623.56
2023-05-14T21:35:28.242Z,100624.81
2023-05-14T21:45:31.145Z,100620.78
2023-05-14T21:55:36.439Z,100602.56
2023-05-14T22:05:40.215Z,100596.38
2023-05-14T22:15:44.482Z,100603.25
2023-05-14T22:25:47.953Z,100611.34
2023-05-14T22:35:52.490Z,100602.13
2023-05-14T22:45:56.148Z,100602.06
2023-05-14T22:56:00.600Z,100586.22
2023-05-14T23:06:04.107Z,100576.25
2023-05-14T23:16:08.609Z,100575.03
2023-05-14T23:26:12.000Z,100563.44
2023-05-14T23:36:16.930Z,100567.50
2023-05-14T23:46:19.990Z,100575.06
2023-05-14T23:56:24.533Z,100561.00
